Gainesville, FL

9:30 PM EDT on July 04, 2015 (GMT -0400)
The Duckpond | | Change Station
CLOSE
Current Station
Personal Weather Station
Location: Gainesville, FL
Elevation: 124 ft
Nearby Weather Stations

Elev 124 ft 29.66 °N, 82.32 °W | Updated 2 seconds ago

Partly Cloudy
Partly Cloudy
78.4 °F
Feels Like 81 °F
N
1.0
Wind Variable Wind from NE
Gusts 1.0 mph

Today
High -- | Low -- °F
--% Chance of Precip.
Yesterday
High -- | Low -- °F
Precip. -- in
6:33 AM 8:33 PM
Waning Gibbous, 89% visible
Pressure 30.11 in
Visibility 10.0 miles
Clouds Clear
Heat Index 81 °F
Dew Point 72 °F
Humidity 81%
Rainfall 0.79 in
Snow Depth Not available.
UV 0 out of 12
Pollen 2.60 out of 12
Air Quality Not available.
Flu Activity Not available.
METAR KGNV 042353Z 15003KT 10SM CLR 26/23 A3012 RMK AO2 LTG DSNT N SLP196 60003 T02610228 10311 20217 53013 $

More Conditions Fewer Conditions

Pressure 30.11 in
Visibility 10.0 miles
Clouds Clear
Heat Index 81 °F
Dew Point 72 °F
Humidity 81%
Rainfall 0.79 in
Snow Depth Not available.
UV 0 out of 12
Pollen 2.60 out of 12
Air Quality Not available.
Flu Activity Not available.
METAR KGNV 042353Z 15003KT 10SM CLR 26/23 A3012 RMK AO2 LTG DSNT N SLP196 60003 T02610228 10311 20217 53013 $

More Conditions Fewer Conditions

10-Day Weather Forecast

×

Almanac

Astronomy

Jul. 04, 2015 Rise Set
Actual Time
Civil Twilight
Nautical Twilight
Astronomical Twilight
Moon
Length of Visible Light
Length of Day
Tomorrow will be .
, % of the Moon is Illuminated

Today's Extremes

State Highs State Lows

Community

WunderPhotos

Upload Photos

1,835,138 photos uploaded!

WunderBlogs® & News

Nearby

Air Quality

  Air Quality AQ Index Pollutant
Not available.

Snow Depth

Station Depth Elevation

Earthquake Activity

City Distance Mag. Time & Date
Minimum magnitude displayed is 2.5.

Coastal Water Temperatures

Place Temperature

Stations

Nearby Weather Stations

Station Location Temp. Windchill Dew Point Humidity Wind Precip. Elev Updated Type